Franconia, New Hampshire
Current Conditions -  °F | °C
As of 9:52 PM on Monday 26 Jan 2015 (Local Time) from KHIE Reporting Station
Overcast Overcast  
Wind Chill: -3°   Ceiling: 9500
Heat Index: 14°   Visibility: 10mi
Dew Point: -10°   Wind: 17mph
Humidity: 34%   Direction: 90°E
Pressure: 30.04"   Gusts: 23mph
Location:  44.23°N, 71.75°W
Report Text: KHIE 270252Z AUTO 09015G20KT 10SM OVC095 M10/M23 A3004 RMK AO2 SLP199 T11001233 58006
Loading
Personal Weather Stations






























Interactive Weather Map New forecast layout! Learn more

10-Day Weather Forecast

Advertisements
Track Severe Weather on mobile